Time;durP1;ratioP1;P1;durP2;ratioP2;P2;SDS_P1;SDS_P2;PMS_P1;PMS_P2;Temp;Humidity;BMP_temperature;BMP_pressure;BME280_temperature;BME280_humidity;BME280_pressure;Samples;Min_cycle;Max_cycle;Signal;HPM_P1;HPM_P2
2024/01/16 00:00:13;;;;;;;7.13;4.00;;;;;;;-1.05;100.00;100801.72;5284176;28;20036;-70
2024/01/16 00:02:45;;;;;;;8.27;4.50;;;;;;;-1.06;100.00;100797.41;5284722;28;20055;-70
2024/01/16 00:05:16;;;;;;;6.60;4.17;;;;;;;-1.08;100.00;100797.34;5284839;28;20140;-68
2024/01/16 00:07:47;;;;;;;10.73;4.40;;;;;;;-1.05;100.00;100807.69;5284273;28;20037;-70
2024/01/16 00:10:19;;;;;;;7.67;4.37;;;;;;;-1.02;100.00;100812.06;5284483;28;20033;-70
2024/01/16 00:12:50;;;;;;;6.97;4.37;;;;;;;-1.01;100.00;100807.00;5284226;28;20472;-70
2024/01/16 00:15:21;;;;;;;8.33;4.23;;;;;;;-1.04;100.00;100814.56;5284010;28;20486;-70
2024/01/16 00:17:53;;;;;;;9.33;4.80;;;;;;;-1.03;100.00;100821.44;5283667;28;20047;-69
2024/01/16 00:20:25;;;;;;;9.10;4.53;;;;;;;-1.03;100.00;100818.88;5282504;28;20062;-69
2024/01/16 00:22:56;;;;;;;9.77;5.07;;;;;;;-0.98;100.00;100817.34;5283805;28;20036;-69
2024/01/16 00:25:28;;;;;;;6.33;4.33;;;;;;;-0.99;100.00;100815.56;5283992;28;20024;-70
2024/01/16 00:28:01;;;;;;;10.97;5.23;;;;;;;-0.98;100.00;100813.91;5283806;28;20038;-70
2024/01/16 00:30:36;;;;;;;13.05;5.40;;;;;;;-0.96;100.00;100813.13;5283943;28;20028;-70
2024/01/16 00:33:07;;;;;;;9.73;6.22;;;;;;;-0.95;100.00;100816.53;5282411;28;20555;-70
2024/01/16 00:35:38;;;;;;;9.43;5.23;;;;;;;-0.94;100.00;100813.19;5283391;28;20108;-70
2024/01/16 00:38:10;;;;;;;13.90;6.50;;;;;;;-0.93;100.00;100803.00;5282364;28;20028;-70
2024/01/16 00:40:42;;;;;;;9.73;4.43;;;;;;;-0.92;100.00;100819.22;5284109;28;20036;-70
2024/01/16 00:43:13;;;;;;;9.17;4.47;;;;;;;-0.90;100.00;100819.28;5283140;28;20030;-70
2024/01/16 00:45:46;;;;;;;12.43;4.70;;;;;;;-0.90;100.00;100822.72;5281963;28;20028;-70
2024/01/16 00:48:19;;;;;;;8.60;4.35;;;;;;;-0.89;100.00;100824.44;5284066;28;20463;-70
2024/01/16 00:50:51;;;;;;;8.88;4.15;;;;;;;-0.87;100.00;100827.94;5282280;28;20021;-69
2024/01/16 00:53:22;;;;;;;6.28;4.05;;;;;;;-0.83;100.00;100813.56;5283356;28;20036;-70
2024/01/16 00:55:54;;;;;;;8.87;3.90;;;;;;;-0.84;100.00;100812.66;5283685;28;20025;-69
2024/01/16 00:58:26;;;;;;;10.70;5.63;;;;;;;-0.83;100.00;100818.69;5283300;28;20040;-69
2024/01/16 01:00:59;;;;;;;8.23;4.10;;;;;;;-0.81;100.00;100815.34;5282801;28;20061;-70
2024/01/16 01:03:30;;;;;;;6.27;3.23;;;;;;;-0.80;100.00;100813.66;5283365;28;20504;-70
2024/01/16 01:06:02;;;;;;;12.13;3.73;;;;;;;-0.82;100.00;100811.06;5283369;28;20518;-70
2024/01/16 01:08:33;;;;;;;8.13;4.67;;;;;;;-0.80;100.00;100808.53;5282948;28;20136;-70
2024/01/16 01:11:04;;;;;;;10.83;4.63;;;;;;;-0.79;100.00;100823.06;5283289;28;20506;-70
2024/01/16 01:13:36;;;;;;;7.90;4.00;;;;;;;-0.75;100.00;100830.03;5282022;28;20086;-71
2024/01/16 01:16:08;;;;;;;8.87;3.87;;;;;;;-0.79;100.00;100821.41;5283194;28;20029;-71
2024/01/16 01:18:39;;;;;;;10.27;4.28;;;;;;;-0.80;100.00;100829.88;5283084;28;20067;-71
2024/01/16 01:21:11;;;;;;;8.23;3.77;;;;;;;-0.79;100.00;100816.28;5283756;28;20060;-69
2024/01/16 01:23:43;;;;;;;9.27;4.07;;;;;;;-0.76;100.00;100811.25;5282707;28;20040;-70
2024/01/16 01:26:14;;;;;;;9.90;4.10;;;;;;;-0.79;100.00;100820.50;5283321;28;20041;-70
2024/01/16 01:28:46;;;;;;;10.73;4.03;;;;;;;-0.82;100.00;100826.41;5283338;28;20039;-70
2024/01/16 01:31:17;;;;;;;10.73;3.73;;;;;;;-0.76;100.00;100815.50;5283059;28;20040;-70
2024/01/16 01:33:49;;;;;;;7.73;3.50;;;;;;;-0.75;100.00;100810.44;5283498;28;20036;-70
2024/01/16 01:36:20;;;;;;;8.53;3.07;;;;;;;-0.71;100.00;100815.66;5283024;28;20044;-71
2024/01/16 01:38:51;;;;;;;6.03;3.67;;;;;;;-0.72;100.00;100819.91;5282958;28;20035;-70
2024/01/16 01:41:23;;;;;;;9.93;3.10;;;;;;;-0.73;100.00;100811.34;5283138;28;20059;-71
2024/01/16 01:43:54;;;;;;;9.20;3.43;;;;;;;-0.73;100.00;100820.72;5282655;28;20033;-71
2024/01/16 01:46:27;;;;;;;7.30;3.53;;;;;;;-0.75;100.00;100818.09;5282855;28;20060;-71
2024/01/16 01:48:58;;;;;;;;;;;;;;;-0.73;100.00;100821.56;5283257;28;20032;-70
2024/01/16 01:51:30;;;;;;;10.52;3.15;;;;;;;-0.76;100.00;100826.63;5282822;28;20340;-71
2024/01/16 01:54:02;;;;;;;8.13;3.40;;;;;;;-0.73;100.00;100825.84;5282255;28;20116;-70
2024/01/16 01:56:33;;;;;;;6.77;3.07;;;;;;;-0.74;100.00;100821.56;5286985;28;20036;-71
2024/01/16 01:59:06;;;;;;;6.60;3.23;;;;;;;-0.73;100.00;100826.69;5287105;28;20070;-71
2024/01/16 02:01:38;;;;;;;;;;;;;;;-0.72;100.00;100837.81;5287101;28;20044;-71
2024/01/16 02:04:11;;;;;;;11.38;3.08;;;;;;;-0.73;100.00;100836.94;5285515;28;19993;-71
2024/01/16 02:06:44;;;;;;;7.07;2.78;;;;;;;-0.74;100.00;100842.91;5287011;28;20037;-71
2024/01/16 02:09:15;;;;;;;11.77;3.08;;;;;;;-0.75;100.00;100841.16;5286613;28;20531;-70
2024/01/16 02:11:46;;;;;;;12.60;2.80;;;;;;;-0.74;100.00;100845.44;5286891;28;20028;-71
2024/01/16 02:14:18;;;;;;;10.83;3.27;;;;;;;-0.78;100.00;100841.03;5286932;28;20177;-71
2024/01/16 02:16:49;;;;;;;6.70;2.83;;;;;;;-0.74;100.00;100847.16;5286083;28;20123;-71
2024/01/16 02:19:21;;;;;;;11.97;3.50;;;;;;;-0.79;100.00;100835.88;5286544;28;20417;-71
2024/01/16 02:21:56;;;;;;;9.13;3.23;;;;;;;-0.78;100.00;100841.03;5285221;28;20081;-71
2024/01/16 02:24:27;;;;;;;6.38;3.10;;;;;;;-0.76;100.00;100836.88;5285316;28;20426;-71
2024/01/16 02:26:59;;;;;;;6.77;4.03;;;;;;;-0.77;100.00;100829.13;5286343;28;20032;-71
2024/01/16 02:29:31;;;;;;;8.70;3.05;;;;;;;-0.83;100.00;100832.34;5286282;28;20048;-71
2024/01/16 02:32:03;;;;;;;6.20;3.43;;;;;;;-0.85;100.00;100835.66;5284966;28;20036;-70
2024/01/16 02:34:34;;;;;;;8.82;3.20;;;;;;;-0.88;100.00;100844.09;5286105;28;20072;-70
2024/01/16 02:37:06;;;;;;;9.10;4.13;;;;;;;-0.88;100.00;100846.66;5286611;28;20056;-70
2024/01/16 02:39:37;;;;;;;5.60;2.93;;;;;;;-0.86;100.00;100849.28;5286191;28;20079;-71
2024/01/16 02:42:08;;;;;;;12.60;4.83;;;;;;;-0.87;100.00;100850.09;5286099;28;20103;-71
2024/01/16 02:44:40;;;;;;;8.37;4.50;;;;;;;-0.86;100.00;100845.03;5286094;28;20052;-70
2024/01/16 02:47:11;;;;;;;9.67;3.73;;;;;;;-0.86;100.00;100839.03;5285080;28;20047;-71
2024/01/16 02:49:43;;;;;;;6.50;3.87;;;;;;;-0.82;100.00;100846.00;5285650;28;20352;-71
2024/01/16 02:52:14;;;;;;;8.43;3.70;;;;;;;-0.82;100.00;100833.19;5286173;28;20534;-72
2024/01/16 02:54:46;;;;;;;7.63;3.33;;;;;;;-0.81;100.00;100837.50;5285813;28;20028;-70
2024/01/16 02:57:17;;;;;;;8.90;3.17;;;;;;;-0.81;100.00;100833.25;5286420;28;20036;-70
2024/01/16 02:59:49;;;;;;;11.43;2.90;;;;;;;-0.84;100.00;100843.38;5286526;28;20029;-70
2024/01/16 03:02:20;;;;;;;9.83;3.57;;;;;;;-0.89;100.00;100842.34;5285770;28;20526;-70
2024/01/16 03:04:52;;;;;;;10.13;2.80;;;;;;;-0.93;100.00;100851.63;5285545;28;20037;-71
2024/01/16 03:07:23;;;;;;;12.43;3.50;;;;;;;-0.96;100.00;100845.53;5285706;28;20033;-71
2024/01/16 03:09:54;;;;;;;11.03;3.57;;;;;;;-0.98;100.00;100842.91;5285989;28;20028;-70
2024/01/16 03:12:26;;;;;;;6.10;2.63;;;;;;;-0.99;100.00;100838.59;5285806;28;20372;-70
2024/01/16 03:14:57;;;;;;;8.70;3.00;;;;;;;-0.96;100.00;100837.84;5285150;28;20499;-71
2024/01/16 03:17:28;;;;;;;8.90;2.43;;;;;;;-0.98;100.00;100836.94;5285403;28;20426;-70
2024/01/16 03:20:00;;;;;;;8.80;2.30;;;;;;;-0.99;100.00;100832.63;5285404;28;20115;-71
2024/01/16 03:22:31;;;;;;;10.10;2.67;;;;;;;-1.04;100.00;100842.69;5285387;28;20021;-70
2024/01/16 03:25:03;;;;;;;7.40;2.53;;;;;;;-0.99;100.00;100845.44;5285508;28;20054;-70
2024/01/16 03:27:34;;;;;;;9.60;3.20;;;;;;;-1.00;100.00;100842.00;5284989;28;20564;-70
2024/01/16 03:30:08;;;;;;;10.63;2.67;;;;;;;-1.06;100.00;100843.44;5284841;28;20055;-70
2024/01/16 03:32:39;;;;;;;10.10;3.05;;;;;;;-1.13;100.00;100840.69;5285105;28;20024;-70
2024/01/16 03:35:11;;;;;;;12.97;3.07;;;;;;;-1.16;100.00;100840.59;5285385;28;20035;-70
2024/01/16 03:37:42;;;;;;;12.57;3.27;;;;;;;-1.19;100.00;100832.81;5284875;28;20032;-70
2024/01/16 03:40:14;;;;;;;8.07;3.47;;;;;;;-1.23;100.00;100837.75;5284865;28;20032;-70
2024/01/16 03:42:45;;;;;;;7.73;3.97;;;;;;;-1.22;100.00;100822.47;5284586;28;20032;-71
2024/01/16 03:45:16;;;;;;;10.50;4.50;;;;;;;-1.23;100.00;100822.41;5284651;28;20082;-71
2024/01/16 03:47:50;;;;;;;9.83;6.10;;;;;;;-1.20;100.00;100825.94;5285014;28;20341;-70
2024/01/16 03:50:21;;;;;;;14.52;5.93;;;;;;;-1.23;100.00;100825.81;5284565;28;20063;-71
2024/01/16 03:52:52;;;;;;;18.47;9.53;;;;;;;-1.26;100.00;100818.03;5284666;28;20060;-69
2024/01/16 03:55:24;;;;;;;14.93;8.70;;;;;;;-1.27;100.00;100816.31;5284622;28;20029;-72
2024/01/16 03:57:55;;;;;;;16.63;9.33;;;;;;;-1.32;100.00;100817.81;5284661;28;20036;-70
2024/01/16 04:00:26;;;;;;;15.80;9.93;;;;;;;-1.32;100.00;100822.94;5285026;28;20064;-70
2024/01/16 04:02:58;;;;;;;15.93;10.23;;;;;;;-1.34;100.00;100815.19;5284953;28;20059;-70
2024/01/16 04:05:29;;;;;;;16.17;10.70;;;;;;;-1.39;100.00;100806.50;5284097;28;20056;-70
2024/01/16 04:08:00;;;;;;;19.00;10.40;;;;;;;-1.43;100.00;100809.78;5284496;28;20078;-70
2024/01/16 04:10:32;;;;;;;22.40;10.87;;;;;;;-1.49;100.00;100804.44;5284740;28;20032;-70
2024/01/16 04:13:03;;;;;;;15.63;10.90;;;;;;;-1.51;100.00;100806.06;5284508;28;20051;-70
2024/01/16 04:15:38;;;;;;;20.00;10.97;;;;;;;-1.48;100.00;100803.63;5284108;28;20082;-71
2024/01/16 04:18:10;;;;;;;19.67;11.02;;;;;;;-1.52;100.00;100800.06;5283274;28;20071;-71
2024/01/16 04:20:41;;;;;;;26.40;12.37;;;;;;;-1.56;100.00;100794.78;5284284;28;20108;-70
2024/01/16 04:23:13;;;;;;;19.20;11.70;;;;;;;-1.61;100.00;100791.19;5284057;28;20079;-70
2024/01/16 04:25:44;;;;;;;27.07;14.97;;;;;;;-1.60;100.00;100790.38;5283694;28;20040;-70
2024/01/16 04:28:15;;;;;;;25.47;12.57;;;;;;;-1.60;100.00;100781.03;5284004;28;20058;-70
2024/01/16 04:30:47;;;;;;;22.57;11.20;;;;;;;-1.61;100.00;100783.53;5283817;28;20427;-71
2024/01/16 04:33:18;;;;;;;18.97;12.20;;;;;;;-1.63;100.00;100783.47;5283789;28;20032;-71
2024/01/16 04:35:50;;;;;;;21.93;11.37;;;;;;;-1.67;100.00;100787.59;5283760;28;20541;-70
2024/01/16 04:38:21;;;;;;;25.37;11.07;;;;;;;-1.69;100.00;100781.56;5283551;28;20115;-71
2024/01/16 04:40:52;;;;;;;27.70;11.37;;;;;;;-1.70;100.00;100784.06;5284242;28;20036;-70
2024/01/16 04:43:24;;;;;;;20.87;11.37;;;;;;;-1.71;100.00;100789.97;5283593;28;20103;-71
2024/01/16 04:45:55;;;;;;;23.17;11.60;;;;;;;-1.77;100.00;100784.63;5284108;28;20024;-71
2024/01/16 04:48:27;;;;;;;25.50;11.00;;;;;;;-1.76;100.00;100783.84;5283520;28;20041;-71
2024/01/16 04:50:58;;;;;;;18.80;11.00;;;;;;;-1.77;100.00;100777.88;5283734;28;20027;-70
2024/01/16 04:53:29;;;;;;;26.53;11.07;;;;;;;-1.81;100.00;100786.22;5282845;28;20093;-70
2024/01/16 04:56:01;;;;;;;20.37;9.67;;;;;;;-1.84;100.00;100792.06;5283962;28;20028;-71
2024/01/16 04:58:33;;;;;;;25.23;10.37;;;;;;;-1.86;100.00;100787.75;5283307;28;20044;-71
2024/01/16 05:01:04;;;;;;;17.98;10.25;;;;;;;-1.90;100.00;100786.75;5283161;28;20920;-71
2024/01/16 05:03:36;;;;;;;20.63;11.53;;;;;;;-1.94;100.00;100790.00;5283303;28;20033;-71
2024/01/16 05:06:17;;;;;;;18.88;9.35;;;;;;;-1.93;100.00;100786.63;5282100;28;20031;-71
2024/01/16 05:08:48;;;;;;;19.05;11.00;;;;;;;-1.96;100.00;100786.53;5281658;28;20085;-71
2024/01/16 05:11:20;;;;;;;24.13;10.00;;;;;;;-1.98;100.00;100780.50;5283397;28;20032;-71
2024/01/16 05:13:57;;;;;;;19.47;10.07;;;;;;;-1.97;100.00;100773.69;5283174;28;20096;-72
2024/01/16 05:16:28;;;;;;;16.38;10.02;;;;;;;-2.01;100.00;100770.16;5283287;28;20028;-71
2024/01/16 05:18:59;;;;;;;20.40;9.87;;;;;;;-2.11;100.00;100768.94;5283119;28;20353;-71
2024/01/16 05:21:31;;;;;;;19.53;9.97;;;;;;;-2.12;100.00;100763.75;5283089;28;20121;-71
2024/01/16 05:24:02;;;;;;;16.93;9.13;;;;;;;-2.15;100.00;100766.19;5283820;28;20028;-71
2024/01/16 05:26:34;;;;;;;17.13;9.40;;;;;;;-2.19;100.00;100762.63;5282182;28;20082;-71
2024/01/16 05:29:05;;;;;;;18.73;8.83;;;;;;;-2.23;100.00;100766.75;5281571;28;20131;-71
2024/01/16 05:31:41;;;;;;;19.37;10.13;;;;;;;-2.21;100.00;100764.25;5282883;28;20490;-71
2024/01/16 05:34:12;;;;;;;21.17;9.38;;;;;;;-2.24;100.00;100765.03;5282772;28;20040;-71
2024/01/16 05:36:44;;;;;;;20.70;9.40;;;;;;;-2.21;100.00;100774.47;5282823;28;20120;-71
2024/01/16 05:39:17;;;;;;;18.53;9.57;;;;;;;-2.25;100.00;100763.28;5281549;28;20059;-71
2024/01/16 05:41:49;;;;;;;23.38;10.30;;;;;;;-2.27;100.00;100764.91;5282802;28;20107;-71
2024/01/16 05:44:21;;;;;;;;;;;;;;;-2.31;100.00;100757.94;5282923;28;20029;-71
2024/01/16 05:46:52;;;;;;;21.58;9.32;;;;;;;-2.37;100.00;100757.69;5282357;28;20382;-71
2024/01/16 05:49:23;;;;;;;21.63;9.30;;;;;;;-2.38;100.00;100764.50;5281373;28;20306;-71
2024/01/16 05:51:55;;;;;;;20.43;9.57;;;;;;;-2.43;100.00;100762.56;5283442;28;20094;-72
2024/01/16 05:54:27;;;;;;;18.40;9.33;;;;;;;-2.45;100.00;100748.88;5281149;28;20036;-72
2024/01/16 05:56:58;;;;;;;26.42;10.30;;;;;;;-2.50;100.00;100746.13;5283264;28;20367;-72
2024/01/16 05:59:30;;;;;;;23.17;9.63;;;;;;;-2.52;100.00;100754.56;5282670;28;20029;-72
2024/01/16 06:02:01;;;;;;;20.40;9.70;;;;;;;-2.52;100.00;100749.44;5282445;28;20060;-72
2024/01/16 06:04:32;;;;;;;25.90;10.10;;;;;;;-2.53;100.00;100747.69;5282469;28;20102;-72
2024/01/16 06:07:06;;;;;;;17.03;8.40;;;;;;;-2.55;100.00;100755.28;5282527;28;20036;-72
2024/01/16 06:09:39;;;;;;;22.52;10.50;;;;;;;-2.58;100.00;100753.50;5282196;28;20025;-72
2024/01/16 06:12:12;;;;;;;20.35;9.65;;;;;;;-2.61;100.00;100747.38;5283345;28;20408;-72
2024/01/16 06:14:43;;;;;;;17.95;8.38;;;;;;;-2.60;100.00;100752.53;5282285;28;20059;-72
2024/01/16 06:17:14;;;;;;;23.33;8.77;;;;;;;-2.61;100.00;100743.16;5282491;28;20052;-72
2024/01/16 06:19:46;;;;;;;22.93;8.97;;;;;;;-2.64;100.00;100743.03;5281017;28;20024;-72
2024/01/16 06:22:18;;;;;;;17.90;7.90;;;;;;;-2.62;100.00;100743.09;5282453;28;20021;-72
2024/01/16 06:24:50;;;;;;;17.23;7.57;;;;;;;-2.63;100.00;100743.91;5282532;28;20032;-71
2024/01/16 06:27:21;;;;;;;18.60;7.73;;;;;;;-2.64;100.00;100747.25;5282431;28;20089;-71
2024/01/16 06:29:52;;;;;;;14.97;6.90;;;;;;;-2.65;100.00;100748.94;5282260;28;20331;-72
2024/01/16 06:32:24;;;;;;;17.20;7.03;;;;;;;-2.69;100.00;100741.97;5282346;28;20055;-72
2024/01/16 06:34:55;;;;;;;15.73;7.67;;;;;;;-2.67;100.00;100742.91;5282487;28;20056;-72
2024/01/16 06:37:27;;;;;;;14.37;6.87;;;;;;;-2.71;100.00;100743.59;5282079;28;20478;-72
2024/01/16 06:39:58;;;;;;;26.17;7.03;;;;;;;-2.68;100.00;100747.97;5281314;28;20119;-72
2024/01/16 06:42:29;;;;;;;12.13;6.33;;;;;;;-2.72;100.00;100749.53;5285780;28;20487;-72
2024/01/16 06:45:01;;;;;;;20.40;6.40;;;;;;;-2.76;100.00;100747.66;5285695;28;20074;-71
2024/01/16 06:47:32;;;;;;;11.93;5.87;;;;;;;-2.75;100.00;100746.84;5285383;28;20111;-71
2024/01/16 06:50:04;;;;;;;16.00;7.47;;;;;;;-2.76;100.00;100752.75;5285748;28;20078;-71
2024/01/16 06:52:36;;;;;;;10.18;5.90;;;;;;;-2.77;100.00;100751.00;5285723;28;20028;-71
2024/01/16 06:55:07;;;;;;;16.20;7.17;;;;;;;-2.76;100.00;100753.59;5285538;28;20040;-71
2024/01/16 06:57:39;;;;;;;14.93;6.10;;;;;;;-2.76;100.00;100760.41;5285467;28;20016;-70
2024/01/16 07:00:11;;;;;;;14.27;5.43;;;;;;;-2.72;100.00;100766.50;5285522;28;20031;-71
2024/01/16 07:02:43;;;;;;;13.40;7.88;;;;;;;-2.70;100.00;100762.34;5284349;28;20087;-71
2024/01/16 07:05:14;;;;;;;14.80;5.43;;;;;;;-2.72;100.00;100759.72;5284186;28;20076;-72
2024/01/16 07:07:46;;;;;;;15.87;5.57;;;;;;;-2.75;100.00;100778.31;5285728;28;20406;-71
2024/01/16 07:10:22;;;;;;;24.83;7.77;;;;;;;-2.72;100.00;100774.16;5285577;28;20028;-71
2024/01/16 07:12:53;;;;;;;15.35;5.63;;;;;;;-2.73;100.00;100772.44;5283972;28;20029;-72
2024/01/16 07:15:24;;;;;;;13.00;5.93;;;;;;;-2.78;100.00;100777.34;5285202;28;20021;-72
2024/01/16 07:17:56;;;;;;;12.10;5.47;;;;;;;-2.79;100.00;100776.44;5285081;28;20033;-72
2024/01/16 07:20:28;;;;;;;14.93;6.53;;;;;;;-2.76;100.00;100778.25;5285798;28;20020;-72
2024/01/16 07:22:59;;;;;;;16.67;6.10;;;;;;;-2.80;100.00;100781.47;5285451;28;20036;-71
2024/01/16 07:25:30;;;;;;;15.03;5.20;;;;;;;-2.82;100.00;100776.34;5285031;28;20411;-72
2024/01/16 07:28:02;;;;;;;11.87;5.20;;;;;;;-2.77;100.00;100779.94;5284904;28;20043;-71
2024/01/16 07:30:33;;;;;;;11.40;6.17;;;;;;;-2.75;100.00;100774.91;5285036;28;20467;-71
2024/01/16 07:33:05;;;;;;;12.80;6.07;;;;;;;-2.77;100.00;100779.94;5285136;28;20056;-71
2024/01/16 07:35:36;;;;;;;12.20;4.93;;;;;;;-2.72;100.00;100779.25;5284748;28;20347;-72
2024/01/16 07:38:08;;;;;;;18.93;5.03;;;;;;;-2.72;100.00;100782.69;5284590;28;20036;-71
2024/01/16 07:40:39;;;;;;;12.05;5.03;;;;;;;-2.71;100.00;100788.66;5284649;28;20460;-71
2024/01/16 07:43:11;;;;;;;13.53;4.80;;;;;;;-2.71;100.00;100778.44;5284619;28;20037;-71
2024/01/16 07:45:43;;;;;;;12.70;5.63;;;;;;;-2.69;100.00;100787.88;5283237;28;20052;-71
2024/01/16 07:48:14;;;;;;;9.90;5.10;;;;;;;-2.70;100.00;100788.72;5284399;28;20039;-72
2024/01/16 07:50:46;;;;;;;12.57;6.70;;;;;;;-2.69;100.00;100789.59;5284812;28;20406;-72
2024/01/16 07:53:17;;;;;;;17.57;5.70;;;;;;;-2.68;100.00;100796.44;5283509;28;20460;-72
2024/01/16 07:55:49;;;;;;;11.17;5.37;;;;;;;-2.67;100.00;100796.50;5282865;28;20032;-72
2024/01/16 07:58:21;;;;;;;12.40;5.17;;;;;;;-2.67;100.00;100801.59;5284545;28;20047;-72
2024/01/16 08:00:52;;;;;;;13.98;4.88;;;;;;;-2.62;100.00;100801.81;5284202;28;20016;-72
2024/01/16 08:03:24;;;;;;;10.43;4.90;;;;;;;-2.61;100.00;100806.06;5284611;28;20044;-72
2024/01/16 08:05:56;;;;;;;11.23;5.03;;;;;;;-2.63;100.00;100812.81;5284139;28;20024;-72
2024/01/16 08:08:28;;;;;;;12.80;5.03;;;;;;;-2.61;100.00;100814.63;5282532;28;20030;-72
2024/01/16 08:10:59;;;;;;;15.30;5.63;;;;;;;-2.59;100.00;100805.34;5284410;28;20073;-72
2024/01/16 08:13:31;;;;;;;17.53;5.03;;;;;;;-2.58;100.00;100799.44;5284073;28;20120;-72
2024/01/16 08:16:02;;;;;;;10.63;5.07;;;;;;;-2.59;100.00;100804.47;5284156;28;20060;-72
2024/01/16 08:18:34;;;;;;;13.40;5.90;;;;;;;-2.54;100.00;100802.97;5283869;28;20031;-72
2024/01/16 08:21:05;;;;;;;11.00;6.73;;;;;;;-2.58;100.00;100809.66;5283604;28;20024;-72
2024/01/16 08:23:37;;;;;;;12.30;4.83;;;;;;;-2.52;100.00;100805.59;5283851;28;20033;-71
2024/01/16 08:26:08;;;;;;;11.10;5.20;;;;;;;-2.50;100.00;100816.72;5283836;28;20128;-71
2024/01/16 08:28:40;;;;;;;14.47;4.63;;;;;;;-2.46;100.00;100813.50;5282681;28;20051;-71
2024/01/16 08:31:11;;;;;;;11.47;4.90;;;;;;;-2.45;100.00;100822.88;5283917;28;20169;-71
2024/01/16 08:33:42;;;;;;;13.97;5.40;;;;;;;-2.45;100.00;100826.31;5282301;28;20036;-72
2024/01/16 08:36:15;;;;;;;11.27;4.93;;;;;;;-2.42;100.00;100821.31;5282358;28;20108;-72
2024/01/16 08:38:46;;;;;;;12.95;5.75;;;;;;;-2.44;100.00;100828.06;5283480;28;20116;-72
2024/01/16 08:41:17;;;;;;;13.30;5.00;;;;;;;-2.40;100.00;100819.72;5283816;28;20111;-72
2024/01/16 08:43:49;;;;;;;9.40;5.97;;;;;;;-2.41;100.00;100833.28;5283546;28;20353;-72
2024/01/16 08:46:21;;;;;;;10.97;5.10;;;;;;;-2.36;100.00;100827.50;5284115;28;20112;-72
2024/01/16 08:48:52;;;;;;;9.82;4.55;;;;;;;-2.36;100.00;100819.84;5283919;28;20403;-72
2024/01/16 08:51:24;;;;;;;9.13;5.00;;;;;;;-2.34;100.00;100819.09;5283060;28;20031;-73
2024/01/16 08:53:55;;;;;;;10.70;4.83;;;;;;;-2.34;100.00;100826.75;5283336;28;20519;-72
2024/01/16 08:56:26;;;;;;;13.10;4.60;;;;;;;-2.31;100.00;100824.31;5283355;28;20112;-72
2024/01/16 08:58:58;;;;;;;12.47;5.00;;;;;;;-2.30;100.00;100822.63;5283205;28;20028;-72
2024/01/16 09:01:29;;;;;;;10.27;4.70;;;;;;;-2.29;100.00;100820.13;5281868;28;20483;-72
2024/01/16 09:04:00;;;;;;;8.33;5.53;;;;;;;-2.22;100.00;100816.16;5282853;28;20113;-72
2024/01/16 09:06:32;;;;;;;13.73;6.13;;;;;;;-2.20;100.00;100811.97;5283838;28;20328;-72
2024/01/16 09:09:04;;;;;;;10.83;5.60;;;;;;;-2.16;100.00;100820.63;5283804;28;20082;-71
2024/01/16 09:11:36;;;;;;;14.38;6.88;;;;;;;-2.09;100.00;100818.38;5283133;28;20444;-71
2024/01/16 09:14:07;;;;;;;13.97;5.20;;;;;;;-2.06;100.00;100821.06;5283023;28;20074;-71
2024/01/16 09:16:40;;;;;;;13.17;5.60;;;;;;;-2.05;100.00;100807.47;5282879;28;20033;-71
2024/01/16 09:19:11;;;;;;;11.80;4.55;;;;;;;-2.03;100.00;100816.06;5283379;28;20112;-71
2024/01/16 09:21:43;;;;;;;9.37;4.73;;;;;;;-1.99;100.00;100817.06;5283948;28;20367;-71
2024/01/16 09:24:14;;;;;;;12.47;4.83;;;;;;;-1.95;100.00;100816.34;5282922;28;20068;-72
2024/01/16 09:26:46;;;;;;;9.97;4.30;;;;;;;-1.90;100.00;100806.31;5281804;28;20086;-72
2024/01/16 09:29:17;;;;;;;13.13;5.40;;;;;;;-1.87;100.00;100807.31;5281799;28;20040;-72
2024/01/16 09:31:49;;;;;;;11.13;4.37;;;;;;;-1.77;100.00;100812.75;5283581;28;20028;-71
2024/01/16 09:34:20;;;;;;;12.00;5.73;;;;;;;-1.71;100.00;100801.06;5281859;28;20021;-71
2024/01/16 09:36:51;;;;;;;9.47;4.47;;;;;;;-1.61;100.00;100803.97;5282776;28;20056;-71
2024/01/16 09:39:23;;;;;;;14.13;5.83;;;;;;;-1.57;100.00;100801.59;5282498;28;20367;-72
2024/01/16 09:41:55;;;;;;;10.87;5.40;;;;;;;-1.42;100.00;100805.53;5282935;28;20360;-72
2024/01/16 09:44:27;;;;;;;13.93;5.18;;;;;;;-1.41;100.00;100813.25;5282685;28;20029;-72
2024/01/16 09:47:00;;;;;;;10.60;5.22;;;;;;;-1.35;100.00;100813.47;5282589;28;20028;-71
2024/01/16 09:49:32;;;;;;;10.85;4.63;;;;;;;-1.31;100.00;100810.19;5282903;28;20029;-72
2024/01/16 09:52:04;;;;;;;15.87;7.00;;;;;;;-1.30;100.00;100811.94;5282796;28;20343;-71
2024/01/16 09:54:35;;;;;;;10.60;5.03;;;;;;;-1.21;100.00;100802.84;5282730;28;20028;-71
2024/01/16 09:57:07;;;;;;;7.40;4.20;;;;;;;-1.21;100.00;100818.19;5282824;28;20074;-72
2024/01/16 09:59:40;;;;;;;9.65;4.85;;;;;;;-1.16;100.00;100803.88;5282572;28;20034;-72
2024/01/16 10:02:12;;;;;;;15.57;5.70;;;;;;;-0.98;100.00;100803.69;5282432;28;20391;-72
2024/01/16 10:04:43;;;;;;;10.57;4.63;;;;;;;-0.94;100.00;100788.47;5283022;28;20097;-72
2024/01/16 10:07:16;;;;;;;13.33;5.07;;;;;;;-0.75;100.00;100796.78;5282721;28;20032;-71
2024/01/16 10:09:48;;;;;;;10.25;4.88;;;;;;;-0.63;100.00;100794.63;5282671;28;20021;-72
2024/01/16 10:12:19;;;;;;;8.87;4.57;;;;;;;-0.74;100.00;100794.25;5283335;28;20455;-72
2024/01/16 10:14:51;;;;;;;10.93;4.53;;;;;;;-0.56;100.00;100796.56;5282679;28;20025;-73
2024/01/16 10:17:35;;;;;;;9.53;4.83;;;;;;;-0.35;100.00;100792.06;5286654;28;20331;-72
2024/01/16 10:20:12;;;;;;;9.88;4.22;;;;;;;-0.01;100.00;100783.75;5285466;28;20025;-72
2024/01/16 10:22:54;;;;;;;9.15;4.63;;;;;;;0.40;100.00;100791.75;5286325;28;20036;-72
2024/01/16 10:25:25;;;;;;;9.90;3.88;;;;;;;0.53;100.00;100780.16;5286397;28;20089;-72
2024/01/16 10:28:04;;;;;;;10.67;4.77;;;;;;;0.81;100.00;100778.38;5286405;28;20097;-72
2024/01/16 10:30:36;;;;;;;9.45;3.88;;;;;;;1.39;100.00;100768.72;5286323;28;20020;-73
2024/01/16 10:33:15;;;;;;;8.17;4.03;;;;;;;1.70;98.48;100765.16;5286427;28;20035;-72
2024/01/16 10:35:46;;;;;;;9.30;3.95;;;;;;;1.68;96.17;100766.84;5286188;28;20459;-72
2024/01/16 10:38:22;;;;;;;8.23;4.03;;;;;;;1.99;96.73;100757.22;5285932;28;20020;-72
2024/01/16 10:41:09;;;;;;;8.35;4.00;;;;;;;2.25;95.08;100755.19;5286189;28;20040;-72
2024/01/16 10:43:41;;;;;;;8.32;4.13;;;;;;;2.34;97.06;100755.41;5286518;28;20456;-72
2024/01/16 10:46:14;;;;;;;10.57;4.03;;;;;;;2.71;93.40;100757.84;5286138;28;20039;-72
2024/01/16 10:49:06;;;;;;;7.13;4.63;;;;;;;2.74;89.98;100761.31;5284943;28;20082;-72
2024/01/16 10:51:40;;;;;;;11.02;3.65;;;;;;;2.89;87.69;100765.03;5285655;28;20032;-71
2024/01/16 10:54:15;;;;;;;8.25;3.97;;;;;;;2.74;84.17;100766.47;5286580;28;20020;-71
2024/01/16 10:56:47;;;;;;;11.20;4.60;;;;;;;2.82;84.46;100758.91;5286409;28;20167;-72
2024/01/16 10:59:24;;;;;;;8.32;4.95;;;;;;;2.62;83.05;100763.66;5284472;28;20039;-70
2024/01/16 11:01:58;;;;;;;9.20;3.88;;;;;;;3.02;84.73;100751.53;5285960;28;20048;-72
2024/01/16 11:04:31;;;;;;;9.23;3.88;;;;;;;3.77;86.09;100741.56;5286119;28;20036;-72
2024/01/16 11:07:04;;;;;;;6.78;3.40;;;;;;;3.78;79.44;100740.72;5285447;28;20056;-72
2024/01/16 11:09:36;;;;;;;6.90;3.40;;;;;;;4.05;79.88;100741.06;5285774;28;20455;-72
2024/01/16 11:12:10;;;;;;;10.83;4.93;;;;;;;4.29;78.92;100737.94;5284550;28;20028;-72
2024/01/16 11:14:45;;;;;;;8.30;3.97;;;;;;;4.26;75.69;100743.91;5285140;28;20070;-71
2024/01/16 11:17:20;;;;;;;8.38;4.10;;;;;;;4.09;75.30;100737.66;5285654;28;20027;-71
2024/01/16 11:19:51;;;;;;;8.20;4.22;;;;;;;3.69;74.68;100735.44;5285935;28;20541;-71
2024/01/16 11:22:23;;;;;;;8.53;4.07;;;;;;;3.22;76.77;100731.28;5284320;28;20056;-71
2024/01/16 11:25:09;;;;;;;8.38;3.97;;;;;;;4.28;76.80;100731.91;5285220;28;20033;-72
2024/01/16 11:27:42;;;;;;;8.52;3.88;;;;;;;3.36;73.66;100733.19;5285684;28;20342;-72
2024/01/16 11:30:30;;;;;;;13.80;4.18;;;;;;;3.74;74.83;100727.75;5283989;28;20060;-72
2024/01/16 11:33:01;;;;;;;7.63;4.13;;;;;;;3.68;73.33;100736.25;5285645;28;20020;-72
2024/01/16 11:35:36;;;;;;;10.57;4.70;;;;;;;4.63;74.89;100734.00;5284800;28;20097;-72